sensor_id;sensor_type;location;lat;lon;timestamp;temperature;humidity
53802;DHT22;39709;53.334;6.534;2022-07-03T00:00:34;18.20;1.00
53802;DHT22;39709;53.334;6.534;2022-07-03T00:03:00;18.10;1.00
53802;DHT22;39709;53.334;6.534;2022-07-03T00:05:25;18.10;1.00
53802;DHT22;39709;53.334;6.534;2022-07-03T00:07:51;18.00;1.00
53802;DHT22;39709;53.334;6.534;2022-07-03T00:10:17;18.10;1.00
53802;DHT22;39709;53.334;6.534;2022-07-03T00:12:42;18.00;1.00
53802;DHT22;39709;53.334;6.534;2022-07-03T00:15:08;17.90;1.00
53802;DHT22;39709;53.334;6.534;2022-07-03T00:17:34;17.80;1.00
53802;DHT22;39709;53.334;6.534;2022-07-03T00:19:59;17.70;1.00
53802;DHT22;39709;53.334;6.534;2022-07-03T00:22:25;17.60;1.00
53802;DHT22;39709;53.334;6.534;2022-07-03T00:24:52;17.60;1.00
53802;DHT22;39709;53.334;6.534;2022-07-03T00:27:18;17.50;1.00
53802;DHT22;39709;53.334;6.534;2022-07-03T00:29:44;17.40;1.00
53802;DHT22;39709;53.334;6.534;2022-07-03T00:32:11;17.40;1.00
53802;DHT22;39709;53.334;6.534;2022-07-03T00:34:38;17.40;1.00
53802;DHT22;39709;53.334;6.534;2022-07-03T00:37:06;17.30;1.00
53802;DHT22;39709;53.334;6.534;2022-07-03T00:39:35;17.30;1.00
53802;DHT22;39709;53.334;6.534;2022-07-03T00:42:02;17.20;1.00
53802;DHT22;39709;53.334;6.534;2022-07-03T00:44:28;17.30;1.00
53802;DHT22;39709;53.334;6.534;2022-07-03T00:46:54;17.30;1.00
53802;DHT22;39709;53.334;6.534;2022-07-03T00:49:20;17.20;1.00
53802;DHT22;39709;53.334;6.534;2022-07-03T00:51:48;17.10;2.60
53802;DHT22;39709;53.334;6.534;2022-07-03T00:54:16;17.10;1.80
53802;DHT22;39709;53.334;6.534;2022-07-03T00:56:43;17.00;4.10
53802;DHT22;39709;53.334;6.534;2022-07-03T00:59:13;17.00;3.30
53802;DHT22;39709;53.334;6.534;2022-07-03T01:01:38;16.90;4.60
53802;DHT22;39709;53.334;6.534;2022-07-03T01:04:17;16.80;5.20
53802;DHT22;39709;53.334;6.534;2022-07-03T01:06:54;16.70;8.10
53802;DHT22;39709;53.334;6.534;2022-07-03T01:09:26;16.70;8.50
53802;DHT22;39709;53.334;6.534;2022-07-03T01:11:58;16.70;9.70
53802;DHT22;39709;53.334;6.534;2022-07-03T01:14:28;16.70;7.70
53802;DHT22;39709;53.334;6.534;2022-07-03T01:19:35;16.60;9.30
53802;DHT22;39709;53.334;6.534;2022-07-03T01:24:55;16.60;9.20
53802;DHT22;39709;53.334;6.534;2022-07-03T01:27:34;16.50;10.60
53802;DHT22;39709;53.334;6.534;2022-07-03T01:30:04;16.50;12.50
53802;DHT22;39709;53.334;6.534;2022-07-03T01:32:38;16.40;12.40
53802;DHT22;39709;53.334;6.534;2022-07-03T01:35:04;16.40;12.50
53802;DHT22;39709;53.334;6.534;2022-07-03T01:37:31;16.40;8.50
53802;DHT22;39709;53.334;6.534;2022-07-03T01:39:59;16.40;10.30
53802;DHT22;39709;53.334;6.534;2022-07-03T01:42:26;16.30;12.20
53802;DHT22;39709;53.334;6.534;2022-07-03T01:44:53;16.30;14.80
53802;DHT22;39709;53.334;6.534;2022-07-03T01:47:21;16.30;14.40
53802;DHT22;39709;53.334;6.534;2022-07-03T01:49:48;16.20;14.00
53802;DHT22;39709;53.334;6.534;2022-07-03T01:52:14;16.20;13.80
53802;DHT22;39709;53.334;6.534;2022-07-03T01:54:40;16.20;14.10
53802;DHT22;39709;53.334;6.534;2022-07-03T01:57:07;16.10;14.90
53802;DHT22;39709;53.334;6.534;2022-07-03T01:59:33;16.00;19.00
53802;DHT22;39709;53.334;6.534;2022-07-03T02:02:04;16.00;19.70
53802;DHT22;39709;53.334;6.534;2022-07-03T02:04:34;16.00;18.90
53802;DHT22;39709;53.334;6.534;2022-07-03T02:07:10;16.00;22.80
53802;DHT22;39709;53.334;6.534;2022-07-03T02:09:44;15.90;23.70
53802;DHT22;39709;53.334;6.534;2022-07-03T02:12:11;15.90;24.90
53802;DHT22;39709;53.334;6.534;2022-07-03T02:14:38;16.00;21.50
53802;DHT22;39709;53.334;6.534;2022-07-03T02:17:17;16.00;26.00
53802;DHT22;39709;53.334;6.534;2022-07-03T02:19:48;16.00;23.80
53802;DHT22;39709;53.334;6.534;2022-07-03T02:22:18;16.00;29.10
53802;DHT22;39709;53.334;6.534;2022-07-03T02:24:44;15.90;27.90
53802;DHT22;39709;53.334;6.534;2022-07-03T02:27:12;15.90;26.80
53802;DHT22;39709;53.334;6.534;2022-07-03T02:29:41;15.90;26.90
53802;DHT22;39709;53.334;6.534;2022-07-03T02:32:10;15.90;25.80
53802;DHT22;39709;53.334;6.534;2022-07-03T02:34:37;15.90;28.40
53802;DHT22;39709;53.334;6.534;2022-07-03T02:37:05;15.90;25.80
53802;DHT22;39709;53.334;6.534;2022-07-03T02:39:35;15.90;23.00
53802;DHT22;39709;53.334;6.534;2022-07-03T02:42:04;15.90;25.80
53802;DHT22;39709;53.334;6.534;2022-07-03T02:44:35;15.90;26.10
53802;DHT22;39709;53.334;6.534;2022-07-03T02:47:07;15.80;27.20
53802;DHT22;39709;53.334;6.534;2022-07-03T02:54:55;15.70;28.30
53802;DHT22;39709;53.334;6.534;2022-07-03T02:57:22;15.70;27.70
53802;DHT22;39709;53.334;6.534;2022-07-03T03:05:21;15.60;27.60
53802;DHT22;39709;53.334;6.534;2022-07-03T03:10:37;15.70;27.60
53802;DHT22;39709;53.334;6.534;2022-07-03T03:13:04;15.70;25.60
53802;DHT22;39709;53.334;6.534;2022-07-03T03:15:30;15.70;25.40
53802;DHT22;39709;53.334;6.534;2022-07-03T03:17:57;15.70;25.60
53802;DHT22;39709;53.334;6.534;2022-07-03T03:20:27;15.70;22.90
53802;DHT22;39709;53.334;6.534;2022-07-03T03:25:18;15.70;21.70
53802;DHT22;39709;53.334;6.534;2022-07-03T03:27:44;15.40;20.20
53802;DHT22;39709;53.334;6.534;2022-07-03T03:30:10;15.70;19.20
53802;DHT22;39709;53.334;6.534;2022-07-03T03:32:35;15.80;17.90
53802;DHT22;39709;53.334;6.534;2022-07-03T03:35:01;15.90;16.10
53802;DHT22;39709;53.334;6.534;2022-07-03T03:37:27;16.20;11.50
53802;DHT22;39709;53.334;6.534;2022-07-03T03:39:53;16.30;6.90
53802;DHT22;39709;53.334;6.534;2022-07-03T03:42:18;16.50;3.40
53802;DHT22;39709;53.334;6.534;2022-07-03T03:44:44;16.70;1.00
53802;DHT22;39709;53.334;6.534;2022-07-03T03:47:09;16.90;1.00
53802;DHT22;39709;53.334;6.534;2022-07-03T03:49:35;17.00;1.00
53802;DHT22;39709;53.334;6.534;2022-07-03T03:52:01;17.10;1.00
53802;DHT22;39709;53.334;6.534;2022-07-03T03:54:26;17.20;1.00
53802;DHT22;39709;53.334;6.534;2022-07-03T03:56:52;16.90;1.00
53802;DHT22;39709;53.334;6.534;2022-07-03T03:59:17;16.70;1.00
53802;DHT22;39709;53.334;6.534;2022-07-03T04:01:43;16.50;1.00
53802;DHT22;39709;53.334;6.534;2022-07-03T04:04:11;16.30;1.00
53802;DHT22;39709;53.334;6.534;2022-07-03T04:06:37;16.10;3.20
53802;DHT22;39709;53.334;6.534;2022-07-03T04:09:03;16.00;6.70
53802;DHT22;39709;53.334;6.534;2022-07-03T04:11:28;15.90;10.30
53802;DHT22;39709;53.334;6.534;2022-07-03T04:13:54;16.00;11.70
53802;DHT22;39709;53.334;6.534;2022-07-03T04:16:19;16.20;8.60
53802;DHT22;39709;53.334;6.534;2022-07-03T04:18:45;16.70;6.40
53802;DHT22;39709;53.334;6.534;2022-07-03T04:21:11;17.10;1.30
53802;DHT22;39709;53.334;6.534;2022-07-03T04:23:36;17.30;1.00
53802;DHT22;39709;53.334;6.534;2022-07-03T04:26:05;17.60;1.00
53802;DHT22;39709;53.334;6.534;2022-07-03T04:28:31;17.70;1.00
53802;DHT22;39709;53.334;6.534;2022-07-03T04:30:57;17.80;1.00
53802;DHT22;39709;53.334;6.534;2022-07-03T04:33:23;17.80;1.00
53802;DHT22;39709;53.334;6.534;2022-07-03T04:35:48;17.80;1.00
53802;DHT22;39709;53.334;6.534;2022-07-03T04:38:14;17.70;1.00
53802;DHT22;39709;53.334;6.534;2022-07-03T04:40:39;17.70;1.00
53802;DHT22;39709;53.334;6.534;2022-07-03T04:43:05;17.80;1.00
53802;DHT22;39709;53.334;6.534;2022-07-03T04:45:31;17.70;1.00
53802;DHT22;39709;53.334;6.534;2022-07-03T04:47:56;17.70;1.00
53802;DHT22;39709;53.334;6.534;2022-07-03T04:50:22;17.80;1.00
53802;DHT22;39709;53.334;6.534;2022-07-03T04:52:47;17.80;1.00
53802;DHT22;39709;53.334;6.534;2022-07-03T04:55:13;17.80;1.00
53802;DHT22;39709;53.334;6.534;2022-07-03T04:57:38;17.70;1.00
53802;DHT22;39709;53.334;6.534;2022-07-03T05:00:04;17.80;1.00
53802;DHT22;39709;53.334;6.534;2022-07-03T05:02:30;17.80;1.00
53802;DHT22;39709;53.334;6.534;2022-07-03T05:04:56;17.80;1.00
53802;DHT22;39709;53.334;6.534;2022-07-03T05:07:22;18.00;1.00
53802;DHT22;39709;53.334;6.534;2022-07-03T05:09:47;18.10;1.00
53802;DHT22;39709;53.334;6.534;2022-07-03T05:12:13;18.10;1.00
53802;DHT22;39709;53.334;6.534;2022-07-03T05:14:38;18.30;1.00
53802;DHT22;39709;53.334;6.534;2022-07-03T05:17:04;18.40;1.00
53802;DHT22;39709;53.334;6.534;2022-07-03T05:19:29;18.50;1.00
53802;DHT22;39709;53.334;6.534;2022-07-03T05:21:55;18.60;1.00
53802;DHT22;39709;53.334;6.534;2022-07-03T05:24:20;18.70;1.00
53802;DHT22;39709;53.334;6.534;2022-07-03T05:26:46;18.70;1.00
53802;DHT22;39709;53.334;6.534;2022-07-03T05:29:12;18.80;1.00
53802;DHT22;39709;53.334;6.534;2022-07-03T05:31:37;18.80;1.00
53802;DHT22;39709;53.334;6.534;2022-07-03T05:34:03;18.70;1.00
53802;DHT22;39709;53.334;6.534;2022-07-03T05:36:28;18.80;1.00
53802;DHT22;39709;53.334;6.534;2022-07-03T05:38:54;18.80;1.00
53802;DHT22;39709;53.334;6.534;2022-07-03T05:41:38;18.90;1.00
53802;DHT22;39709;53.334;6.534;2022-07-03T05:44:04;19.00;1.00
53802;DHT22;39709;53.334;6.534;2022-07-03T05:46:29;19.10;1.00
53802;DHT22;39709;53.334;6.534;2022-07-03T05:48:55;19.30;1.00
53802;DHT22;39709;53.334;6.534;2022-07-03T05:51:20;19.30;1.00
53802;DHT22;39709;53.334;6.534;2022-07-03T05:53:46;19.10;1.00
53802;DHT22;39709;53.334;6.534;2022-07-03T05:56:11;19.00;1.00
53802;DHT22;39709;53.334;6.534;2022-07-03T05:58:37;18.90;1.00
53802;DHT22;39709;53.334;6.534;2022-07-03T06:01:03;18.80;1.00
53802;DHT22;39709;53.334;6.534;2022-07-03T06:03:28;18.70;1.00
53802;DHT22;39709;53.334;6.534;2022-07-03T06:05:54;18.70;1.00
53802;DHT22;39709;53.334;6.534;2022-07-03T06:08:19;18.80;1.00
53802;DHT22;39709;53.334;6.534;2022-07-03T06:10:45;19.00;1.00
53802;DHT22;39709;53.334;6.534;2022-07-03T06:13:10;19.10;1.00
53802;DHT22;39709;53.334;6.534;2022-07-03T06:15:36;19.30;1.00
53802;DHT22;39709;53.334;6.534;2022-07-03T06:18:01;19.40;1.00
53802;DHT22;39709;53.334;6.534;2022-07-03T06:20:27;19.50;1.00
53802;DHT22;39709;53.334;6.534;2022-07-03T06:22:53;19.60;1.00
53802;DHT22;39709;53.334;6.534;2022-07-03T06:25:18;19.60;1.00
53802;DHT22;39709;53.334;6.534;2022-07-03T06:27:44;19.60;1.00
53802;DHT22;39709;53.334;6.534;2022-07-03T06:30:09;19.50;1.00
53802;DHT22;39709;53.334;6.534;2022-07-03T06:32:35;19.40;1.00
53802;DHT22;39709;53.334;6.534;2022-07-03T06:35:01;19.30;1.00
53802;DHT22;39709;53.334;6.534;2022-07-03T06:37:26;19.30;1.00
53802;DHT22;39709;53.334;6.534;2022-07-03T06:39:52;19.30;1.00
53802;DHT22;39709;53.334;6.534;2022-07-03T06:42:17;19.40;1.00
53802;DHT22;39709;53.334;6.534;2022-07-03T06:44:43;19.50;1.00
53802;DHT22;39709;53.334;6.534;2022-07-03T06:47:10;19.30;1.00
53802;DHT22;39709;53.334;6.534;2022-07-03T06:49:35;19.40;1.00
53802;DHT22;39709;53.334;6.534;2022-07-03T06:52:01;19.40;1.00
53802;DHT22;39709;53.334;6.534;2022-07-03T06:54:27;19.30;1.00
53802;DHT22;39709;53.334;6.534;2022-07-03T06:56:52;19.40;1.00
53802;DHT22;39709;53.334;6.534;2022-07-03T06:59:18;19.30;1.00
53802;DHT22;39709;53.334;6.534;2022-07-03T07:01:44;19.20;1.00
53802;DHT22;39709;53.334;6.534;2022-07-03T07:04:09;19.20;1.00
53802;DHT22;39709;53.334;6.534;2022-07-03T07:06:35;19.10;1.00
53802;DHT22;39709;53.334;6.534;2022-07-03T07:09:01;19.10;1.00
53802;DHT22;39709;53.334;6.534;2022-07-03T07:11:26;19.00;1.00
53802;DHT22;39709;53.334;6.534;2022-07-03T07:13:52;18.80;1.00
53802;DHT22;39709;53.334;6.534;2022-07-03T07:16:17;18.90;1.00
53802;DHT22;39709;53.334;6.534;2022-07-03T07:18:43;18.90;1.00
53802;DHT22;39709;53.334;6.534;2022-07-03T07:21:09;19.00;1.00
53802;DHT22;39709;53.334;6.534;2022-07-03T07:23:35;19.20;1.00
53802;DHT22;39709;53.334;6.534;2022-07-03T07:26:00;19.40;1.00
53802;DHT22;39709;53.334;6.534;2022-07-03T07:28:26;19.50;1.00
53802;DHT22;39709;53.334;6.534;2022-07-03T07:30:52;19.60;1.00
53802;DHT22;39709;53.334;6.534;2022-07-03T07:33:21;19.90;1.00
53802;DHT22;39709;53.334;6.534;2022-07-03T07:35:47;19.90;1.00
53802;DHT22;39709;53.334;6.534;2022-07-03T07:38:13;20.00;1.00
53802;DHT22;39709;53.334;6.534;2022-07-03T07:40:39;20.00;1.00
53802;DHT22;39709;53.334;6.534;2022-07-03T07:43:05;19.80;1.00
53802;DHT22;39709;53.334;6.534;2022-07-03T07:45:30;19.70;1.00
53802;DHT22;39709;53.334;6.534;2022-07-03T07:47:56;19.70;1.00
53802;DHT22;39709;53.334;6.534;2022-07-03T07:50:21;19.70;1.00
53802;DHT22;39709;53.334;6.534;2022-07-03T07:52:47;19.80;1.00
53802;DHT22;39709;53.334;6.534;2022-07-03T07:55:13;19.70;1.00
53802;DHT22;39709;53.334;6.534;2022-07-03T07:57:39;19.80;1.00
53802;DHT22;39709;53.334;6.534;2022-07-03T08:00:06;19.90;1.00
53802;DHT22;39709;53.334;6.534;2022-07-03T08:02:31;20.00;1.00
53802;DHT22;39709;53.334;6.534;2022-07-03T08:05:16;20.20;1.00
53802;DHT22;39709;53.334;6.534;2022-07-03T08:08:00;20.20;1.00
53802;DHT22;39709;53.334;6.534;2022-07-03T08:10:26;20.30;1.00
53802;DHT22;39709;53.334;6.534;2022-07-03T08:12:51;20.30;1.00
53802;DHT22;39709;53.334;6.534;2022-07-03T08:15:17;20.40;1.00
53802;DHT22;39709;53.334;6.534;2022-07-03T08:17:42;20.40;1.00
53802;DHT22;39709;53.334;6.534;2022-07-03T08:20:08;20.40;1.00
53802;DHT22;39709;53.334;6.534;2022-07-03T08:22:34;20.60;1.00
53802;DHT22;39709;53.334;6.534;2022-07-03T08:24:59;20.60;1.00
53802;DHT22;39709;53.334;6.534;2022-07-03T08:27:25;20.80;1.00
53802;DHT22;39709;53.334;6.534;2022-07-03T08:29:51;20.90;1.00
53802;DHT22;39709;53.334;6.534;2022-07-03T08:32:16;21.00;1.00
53802;DHT22;39709;53.334;6.534;2022-07-03T08:34:42;21.10;1.00
53802;DHT22;39709;53.334;6.534;2022-07-03T08:37:07;21.10;1.00
53802;DHT22;39709;53.334;6.534;2022-07-03T08:39:33;21.10;1.00
53802;DHT22;39709;53.334;6.534;2022-07-03T08:41:59;21.30;1.00
53802;DHT22;39709;53.334;6.534;2022-07-03T08:44:25;21.30;1.00
53802;DHT22;39709;53.334;6.534;2022-07-03T08:46:51;21.50;1.00
53802;DHT22;39709;53.334;6.534;2022-07-03T08:49:17;21.70;1.00
53802;DHT22;39709;53.334;6.534;2022-07-03T08:51:44;21.80;1.00
53802;DHT22;39709;53.334;6.534;2022-07-03T08:54:10;21.80;1.00
53802;DHT22;39709;53.334;6.534;2022-07-03T08:56:35;21.90;1.00
53802;DHT22;39709;53.334;6.534;2022-07-03T08:59:01;22.00;1.00
53802;DHT22;39709;53.334;6.534;2022-07-03T09:01:28;22.00;1.00
53802;DHT22;39709;53.334;6.534;2022-07-03T09:03:53;22.00;1.00
53802;DHT22;39709;53.334;6.534;2022-07-03T09:06:20;22.00;1.00
53802;DHT22;39709;53.334;6.534;2022-07-03T09:08:46;22.00;1.00
53802;DHT22;39709;53.334;6.534;2022-07-03T09:11:12;22.10;1.00
53802;DHT22;39709;53.334;6.534;2022-07-03T09:13:38;22.20;1.00
53802;DHT22;39709;53.334;6.534;2022-07-03T09:16:03;22.10;1.00
53802;DHT22;39709;53.334;6.534;2022-07-03T09:18:36;22.20;1.00
53802;DHT22;39709;53.334;6.534;2022-07-03T09:21:03;22.10;1.00
53802;DHT22;39709;53.334;6.534;2022-07-03T09:23:32;22.00;1.00
53802;DHT22;39709;53.334;6.534;2022-07-03T09:26:00;21.90;1.00
53802;DHT22;39709;53.334;6.534;2022-07-03T09:31:08;22.10;1.00
53802;DHT22;39709;53.334;6.534;2022-07-03T09:33:34;22.30;1.00
53802;DHT22;39709;53.334;6.534;2022-07-03T09:36:00;22.40;1.00
53802;DHT22;39709;53.334;6.534;2022-07-03T09:38:26;22.40;1.00
53802;DHT22;39709;53.334;6.534;2022-07-03T09:40:53;22.50;1.00
53802;DHT22;39709;53.334;6.534;2022-07-03T09:45:55;22.50;1.00
53802;DHT22;39709;53.334;6.534;2022-07-03T09:50:46;22.50;1.00
53802;DHT22;39709;53.334;6.534;2022-07-03T09:53:12;22.60;1.00
53802;DHT22;39709;53.334;6.534;2022-07-03T09:55:37;22.60;1.00
53802;DHT22;39709;53.334;6.534;2022-07-03T09:58:03;22.60;1.00
53802;DHT22;39709;53.334;6.534;2022-07-03T10:00:30;22.70;1.00
53802;DHT22;39709;53.334;6.534;2022-07-03T10:05:22;22.80;1.00
53802;DHT22;39709;53.334;6.534;2022-07-03T10:07:52;22.80;1.00
53802;DHT22;39709;53.334;6.534;2022-07-03T10:10:21;22.80;1.00
53802;DHT22;39709;53.334;6.534;2022-07-03T10:12:48;23.10;1.00
53802;DHT22;39709;53.334;6.534;2022-07-03T10:15:14;23.00;1.00
53802;DHT22;39709;53.334;6.534;2022-07-03T10:17:40;23.10;1.00
53802;DHT22;39709;53.334;6.534;2022-07-03T10:20:07;23.10;1.00
53802;DHT22;39709;53.334;6.534;2022-07-03T10:22:33;23.00;1.00
53802;DHT22;39709;53.334;6.534;2022-07-03T10:25:01;23.00;1.00
53802;DHT22;39709;53.334;6.534;2022-07-03T10:27:27;23.20;1.00
53802;DHT22;39709;53.334;6.534;2022-07-03T10:29:54;23.40;1.00
53802;DHT22;39709;53.334;6.534;2022-07-03T10:32:20;23.40;1.00
53802;DHT22;39709;53.334;6.534;2022-07-03T10:34:46;23.50;1.00
53802;DHT22;39709;53.334;6.534;2022-07-03T10:37:12;23.60;1.00
53802;DHT22;39709;53.334;6.534;2022-07-03T10:42:06;24.00;1.00
53802;DHT22;39709;53.334;6.534;2022-07-03T10:44:55;23.90;1.00
53802;DHT22;39709;53.334;6.534;2022-07-03T10:47:42;23.80;1.00
53802;DHT22;39709;53.334;6.534;2022-07-03T10:50:09;23.60;1.00
53802;DHT22;39709;53.334;6.534;2022-07-03T10:52:35;23.40;1.00
53802;DHT22;39709;53.334;6.534;2022-07-03T10:55:01;23.40;1.00
53802;DHT22;39709;53.334;6.534;2022-07-03T10:57:28;23.60;1.00
53802;DHT22;39709;53.334;6.534;2022-07-03T10:59:55;23.70;1.00
53802;DHT22;39709;53.334;6.534;2022-07-03T11:25:40;21.90;1.00
53802;DHT22;39709;53.334;6.534;2022-07-03T11:28:06;22.10;1.00
53802;DHT22;39709;53.334;6.534;2022-07-03T11:30:32;21.90;1.00
53802;DHT22;39709;53.334;6.534;2022-07-03T11:32:58;21.60;1.00
53802;DHT22;39709;53.334;6.534;2022-07-03T11:38:11;21.70;1.00
53802;DHT22;39709;53.334;6.534;2022-07-03T11:40:36;22.20;1.00
53802;DHT22;39709;53.334;6.534;2022-07-03T11:43:05;22.50;1.00
53802;DHT22;39709;53.334;6.534;2022-07-03T11:45:31;22.70;1.00
53802;DHT22;39709;53.334;6.534;2022-07-03T11:47:56;22.80;1.00
53802;DHT22;39709;53.334;6.534;2022-07-03T11:50:41;22.30;1.00
53802;DHT22;39709;53.334;6.534;2022-07-03T11:58:47;22.00;1.00
53802;DHT22;39709;53.334;6.534;2022-07-03T12:03:48;22.20;1.00
53802;DHT22;39709;53.334;6.534;2022-07-03T12:06:13;22.40;1.00
53802;DHT22;39709;53.334;6.534;2022-07-03T12:08:39;22.30;1.00
53802;DHT22;39709;53.334;6.534;2022-07-03T12:11:12;22.40;1.00
53802;DHT22;39709;53.334;6.534;2022-07-03T12:13:37;22.30;1.00
53802;DHT22;39709;53.334;6.534;2022-07-03T12:16:04;21.90;1.00
53802;DHT22;39709;53.334;6.534;2022-07-03T12:21:15;21.30;1.00
53802;DHT22;39709;53.334;6.534;2022-07-03T12:23:51;20.80;1.00
53802;DHT22;39709;53.334;6.534;2022-07-03T12:26:30;20.60;1.00
53802;DHT22;39709;53.334;6.534;2022-07-03T12:29:00;20.50;1.00
53802;DHT22;39709;53.334;6.534;2022-07-03T12:31:25;20.40;1.00
53802;DHT22;39709;53.334;6.534;2022-07-03T12:33:54;20.30;1.00
53802;DHT22;39709;53.334;6.534;2022-07-03T12:36:20;20.30;1.00
53802;DHT22;39709;53.334;6.534;2022-07-03T12:38:51;20.30;1.00
53802;DHT22;39709;53.334;6.534;2022-07-03T12:41:17;20.40;1.00
53802;DHT22;39709;53.334;6.534;2022-07-03T12:43:44;20.70;1.00
53802;DHT22;39709;53.334;6.534;2022-07-03T12:46:17;20.90;1.00
53802;DHT22;39709;53.334;6.534;2022-07-03T12:48:53;20.90;1.00
53802;DHT22;39709;53.334;6.534;2022-07-03T12:54:07;20.90;1.00
53802;DHT22;39709;53.334;6.534;2022-07-03T12:56:33;20.90;1.00
53802;DHT22;39709;53.334;6.534;2022-07-03T12:58:58;20.70;1.00
53802;DHT22;39709;53.334;6.534;2022-07-03T13:01:43;20.90;1.00
53802;DHT22;39709;53.334;6.534;2022-07-03T13:04:09;21.10;1.00
53802;DHT22;39709;53.334;6.534;2022-07-03T13:06:39;21.20;1.00
53802;DHT22;39709;53.334;6.534;2022-07-03T13:09:05;21.10;1.00
53802;DHT22;39709;53.334;6.534;2022-07-03T13:11:38;21.30;1.00
53802;DHT22;39709;53.334;6.534;2022-07-03T13:14:11;21.40;1.00
53802;DHT22;39709;53.334;6.534;2022-07-03T13:16:38;21.40;1.00
53802;DHT22;39709;53.334;6.534;2022-07-03T13:19:05;21.40;1.00
53802;DHT22;39709;53.334;6.534;2022-07-03T13:21:30;21.60;1.00
53802;DHT22;39709;53.334;6.534;2022-07-03T13:23:56;21.50;1.00
53802;DHT22;39709;53.334;6.534;2022-07-03T13:26:22;21.20;1.00
53802;DHT22;39709;53.334;6.534;2022-07-03T13:28:47;21.10;1.00
53802;DHT22;39709;53.334;6.534;2022-07-03T13:31:13;21.00;1.00
53802;DHT22;39709;53.334;6.534;2022-07-03T13:33:39;20.70;1.00
53802;DHT22;39709;53.334;6.534;2022-07-03T13:36:04;20.70;1.00
53802;DHT22;39709;53.334;6.534;2022-07-03T13:38:30;20.60;1.00
53802;DHT22;39709;53.334;6.534;2022-07-03T13:40:55;20.60;1.00
53802;DHT22;39709;53.334;6.534;2022-07-03T13:43:21;20.50;1.00
53802;DHT22;39709;53.334;6.534;2022-07-03T13:45:47;20.50;1.00
53802;DHT22;39709;53.334;6.534;2022-07-03T13:48:12;20.60;1.00
53802;DHT22;39709;53.334;6.534;2022-07-03T13:50:39;20.60;1.00
53802;DHT22;39709;53.334;6.534;2022-07-03T13:53:06;20.60;1.00
53802;DHT22;39709;53.334;6.534;2022-07-03T13:55:32;20.60;1.00
53802;DHT22;39709;53.334;6.534;2022-07-03T13:57:57;20.50;1.00
53802;DHT22;39709;53.334;6.534;2022-07-03T14:00:23;20.40;1.00
53802;DHT22;39709;53.334;6.534;2022-07-03T14:02:48;20.40;1.00
53802;DHT22;39709;53.334;6.534;2022-07-03T14:05:14;20.10;1.00
53802;DHT22;39709;53.334;6.534;2022-07-03T14:07:39;19.90;1.00
53802;DHT22;39709;53.334;6.534;2022-07-03T14:10:05;19.50;1.00
53802;DHT22;39709;53.334;6.534;2022-07-03T14:12:31;19.40;1.00
53802;DHT22;39709;53.334;6.534;2022-07-03T14:14:56;18.80;1.00
53802;DHT22;39709;53.334;6.534;2022-07-03T14:17:22;18.50;1.00
53802;DHT22;39709;53.334;6.534;2022-07-03T14:19:48;18.30;11.80
53802;DHT22;39709;53.334;6.534;2022-07-03T14:22:14;18.10;24.90
53802;DHT22;39709;53.334;6.534;2022-07-03T14:24:39;18.00;15.50
53802;DHT22;39709;53.334;6.534;2022-07-03T14:27:05;17.80;21.40
53802;DHT22;39709;53.334;6.534;2022-07-03T14:29:49;17.60;43.50
53802;DHT22;39709;53.334;6.534;2022-07-03T14:32:33;17.50;91.20
53802;DHT22;39709;53.334;6.534;2022-07-03T14:34:59;17.30;91.70
53802;DHT22;39709;53.334;6.534;2022-07-03T14:37:26;17.50;95.30
53802;DHT22;39709;53.334;6.534;2022-07-03T14:39:51;17.20;99.90
53802;DHT22;39709;53.334;6.534;2022-07-03T14:42:17;17.20;99.90
53802;DHT22;39709;53.334;6.534;2022-07-03T14:44:45;17.20;99.90
53802;DHT22;39709;53.334;6.534;2022-07-03T14:47:11;16.70;99.90
53802;DHT22;39709;53.334;6.534;2022-07-03T14:49:37;17.10;99.90
53802;DHT22;39709;53.334;6.534;2022-07-03T14:52:03;17.10;99.90
53802;DHT22;39709;53.334;6.534;2022-07-03T14:54:29;16.70;99.90
53802;DHT22;39709;53.334;6.534;2022-07-03T14:56:57;16.80;99.90
53802;DHT22;39709;53.334;6.534;2022-07-03T15:02:07;17.00;99.90
53802;DHT22;39709;53.334;6.534;2022-07-03T15:07:04;17.40;99.90
53802;DHT22;39709;53.334;6.534;2022-07-03T15:09:32;17.10;99.90
53802;DHT22;39709;53.334;6.534;2022-07-03T15:11:58;17.60;99.90
53802;DHT22;39709;53.334;6.534;2022-07-03T15:14:44;17.20;99.90
53802;DHT22;39709;53.334;6.534;2022-07-03T15:17:11;16.60;99.90
53802;DHT22;39709;53.334;6.534;2022-07-03T15:19:37;16.70;99.90
53802;DHT22;39709;53.334;6.534;2022-07-03T15:22:03;17.00;99.90
53802;DHT22;39709;53.334;6.534;2022-07-03T15:24:30;17.00;99.90
53802;DHT22;39709;53.334;6.534;2022-07-03T15:26:56;17.10;99.90
53802;DHT22;39709;53.334;6.534;2022-07-03T15:29:22;16.80;99.90
53802;DHT22;39709;53.334;6.534;2022-07-03T15:31:48;17.00;99.90
53802;DHT22;39709;53.334;6.534;2022-07-03T15:34:14;17.40;99.90
53802;DHT22;39709;53.334;6.534;2022-07-03T15:36:43;17.30;99.90
53802;DHT22;39709;53.334;6.534;2022-07-03T15:39:11;17.10;99.90
53802;DHT22;39709;53.334;6.534;2022-07-03T15:41:47;16.70;99.90
53802;DHT22;39709;53.334;6.534;2022-07-03T15:44:21;16.80;99.90
53802;DHT22;39709;53.334;6.534;2022-07-03T15:49:32;17.10;99.90
53802;DHT22;39709;53.334;6.534;2022-07-03T15:52:03;17.20;99.90
53802;DHT22;39709;53.334;6.534;2022-07-03T15:57:07;17.10;99.90
53802;DHT22;39709;53.334;6.534;2022-07-03T15:59:36;16.80;99.90
53802;DHT22;39709;53.334;6.534;2022-07-03T16:02:04;17.10;99.90
53802;DHT22;39709;53.334;6.534;2022-07-03T16:07:22;17.20;99.90
53802;DHT22;39709;53.334;6.534;2022-07-03T16:09:48;17.20;99.90
53802;DHT22;39709;53.334;6.534;2022-07-03T16:12:15;17.10;99.90
53802;DHT22;39709;53.334;6.534;2022-07-03T16:14:44;16.80;99.90
53802;DHT22;39709;53.334;6.534;2022-07-03T16:17:11;17.00;99.90
53802;DHT22;39709;53.334;6.534;2022-07-03T16:19:40;16.40;99.90
53802;DHT22;39709;53.334;6.534;2022-07-03T16:22:05;16.70;99.90
53802;DHT22;39709;53.334;6.534;2022-07-03T16:24:31;16.60;99.90
53802;DHT22;39709;53.334;6.534;2022-07-03T16:26:57;16.90;99.90
53802;DHT22;39709;53.334;6.534;2022-07-03T16:29:23;16.80;99.90
53802;DHT22;39709;53.334;6.534;2022-07-03T16:31:49;16.80;99.90
53802;DHT22;39709;53.334;6.534;2022-07-03T16:36:51;16.70;99.90
53802;DHT22;39709;53.334;6.534;2022-07-03T16:39:21;16.60;99.90
53802;DHT22;39709;53.334;6.534;2022-07-03T16:41:48;16.80;99.90
53802;DHT22;39709;53.334;6.534;2022-07-03T16:44:18;16.10;99.90
53802;DHT22;39709;53.334;6.534;2022-07-03T16:46:48;16.20;99.90
53802;DHT22;39709;53.334;6.534;2022-07-03T16:49:17;16.80;99.90
53802;DHT22;39709;53.334;6.534;2022-07-03T16:51:44;16.90;99.90
53802;DHT22;39709;53.334;6.534;2022-07-03T16:54:10;16.10;99.90
53802;DHT22;39709;53.334;6.534;2022-07-03T16:56:35;16.70;99.90
53802;DHT22;39709;53.334;6.534;2022-07-03T16:59:01;16.70;99.90
53802;DHT22;39709;53.334;6.534;2022-07-03T17:01:26;16.50;99.90
53802;DHT22;39709;53.334;6.534;2022-07-03T17:03:54;16.60;99.90
53802;DHT22;39709;53.334;6.534;2022-07-03T17:06:20;17.00;99.90
53802;DHT22;39709;53.334;6.534;2022-07-03T17:08:46;16.10;99.90
53802;DHT22;39709;53.334;6.534;2022-07-03T17:11:13;17.00;99.90